Terminal Aerodrome Forecast
Issued by NWS Charleston, WV

Current Version | Previous Version | Graphics & Text | Print | Product List | Glossary On
Versions: 1 2 3 4 5 6 7 8 9 10 11 12 13 14 15 16 17 18 19 20 21 22
000
FTUS41 KRLX 220228 AAA
TAFHTS
TAF AMD
KHTS 220228Z 2202/2224 31005KT P6SM SKC
     FM220300 29004KT 6SM BR SKC
     FM220600 25003KT 3SM BR FEW010
     FM221200 26008KT 5SM BR FEW015
     FM221300 30008KT P6SM SCT040=

USA.gov is the U.S. government's official web portal to all federal, state and local government web resources and services.